createdAt,value
2022-09-21T04:56:30.975Z,99.90
2022-09-21T05:01:35.850Z,99.90
2022-09-21T05:06:37.811Z,99.90
2022-09-21T05:11:40.009Z,99.90
2022-09-21T05:16:49.799Z,99.90
2022-09-21T05:22:24.900Z,99.90
2022-09-21T05:27:27.007Z,99.90
2022-09-21T05:32:45.240Z,99.90
2022-09-21T05:38:00.742Z,99.90
2022-09-21T05:43:02.830Z,99.90
2022-09-21T05:48:20.841Z,99.90
2022-09-21T05:53:39.092Z,99.90
2022-09-21T05:58:46.605Z,99.90
2022-09-21T06:03:50.261Z,99.90
2022-09-21T06:08:52.386Z,99.90
2022-09-21T06:13:54.781Z,99.90
2022-09-21T06:18:57.194Z,99.90
2022-09-21T06:23:59.068Z,99.90
2022-09-21T06:29:00.879Z,99.90
2022-09-21T06:34:02.737Z,99.90
2022-09-21T06:39:04.594Z,99.90
2022-09-21T06:44:06.499Z,99.90
2022-09-21T06:49:08.370Z,99.90
2022-09-21T06:54:10.387Z,99.90
2022-09-21T06:59:12.418Z,99.90
2022-09-21T07:04:14.283Z,99.90
2022-09-21T07:14:38.035Z,99.90
2022-09-21T07:19:39.856Z,99.90
2022-09-21T07:24:41.655Z,99.90
2022-09-21T07:29:43.585Z,99.90
2022-09-21T07:34:46.630Z,99.90
2022-09-21T07:39:48.459Z,99.90
2022-09-21T07:44:51.222Z,99.90
2022-09-21T07:49:54.028Z,99.90
2022-09-21T07:54:55.880Z,99.90
2022-09-21T07:59:58.195Z,99.90
2022-09-21T08:04:59.998Z,99.90
2022-09-21T08:10:01.769Z,99.90
2022-09-21T08:15:03.941Z,99.90
2022-09-21T08:20:07.843Z,99.90
2022-09-21T08:25:11.103Z,99.90
2022-09-21T08:30:13.789Z,99.90
2022-09-21T08:35:15.610Z,99.90
2022-09-21T08:40:18.071Z,99.90
2022-09-21T08:45:21.580Z,99.90
2022-09-21T08:50:34.141Z,99.90
2022-09-21T08:55:36.002Z,99.90
2022-09-21T09:00:40.109Z,99.90
2022-09-21T09:06:02.093Z,99.90
2022-09-21T09:11:10.132Z,99.90
2022-09-21T09:16:56.731Z,99.90
2022-09-21T09:21:58.557Z,99.90
2022-09-21T09:27:01.738Z,99.90
2022-09-21T09:32:04.757Z,99.90
2022-09-21T09:37:15.242Z,99.90
2022-09-21T09:42:44.021Z,99.90
2022-09-21T09:48:02.689Z,99.90
2022-09-21T09:53:25.654Z,99.90
2022-09-21T09:58:44.829Z,99.90
2022-09-21T10:04:05.438Z,99.90
2022-09-21T10:09:26.227Z,99.90
2022-09-21T10:14:33.221Z,99.90
2022-09-21T10:20:08.378Z,99.90
2022-09-21T10:25:16.502Z,99.90
2022-09-21T10:30:30.535Z,99.90
2022-09-21T10:35:32.516Z,99.90
2022-09-21T10:40:37.647Z,99.90
2022-09-21T10:45:56.119Z,99.90
2022-09-21T10:50:58.214Z,99.90
2022-09-21T10:56:19.129Z,99.90
2022-09-21T11:02:03.833Z,99.90
2022-09-21T11:08:04.442Z,99.90
2022-09-21T11:14:30.481Z,99.90
2022-09-21T11:26:13.478Z,99.90
2022-09-21T11:32:05.301Z,99.90
2022-09-21T11:37:21.410Z,95.60
2022-09-21T11:42:41.519Z,99.90
2022-09-21T11:48:18.826Z,99.90
2022-09-21T11:53:58.341Z,99.90
2022-09-21T11:59:23.909Z,99.90
2022-09-21T12:04:38.342Z,85.50
2022-09-21T12:10:00.933Z,78.60
2022-09-21T12:15:09.887Z,66.60
2022-09-21T12:20:30.797Z,69.70
2022-09-21T12:25:39.748Z,76.50
2022-09-21T12:30:44.209Z,81.70
2022-09-21T12:35:54.475Z,99.90
2022-09-21T12:41:27.180Z,74.10
2022-09-21T12:46:32.062Z,89.70
2022-09-21T12:51:44.688Z,60.20
2022-09-21T12:56:53.629Z,92.90
2022-09-21T13:02:33.532Z,98.10
2022-09-21T13:07:38.610Z,93.00
2022-09-21T13:12:44.266Z,86.50
2022-09-21T13:17:46.125Z,90.90
2022-09-21T13:22:49.015Z,99.90
2022-09-21T13:28:09.127Z,56.40
2022-09-21T13:33:19.830Z,51.50
2022-09-21T13:38:39.797Z,55.90
2022-09-21T13:43:47.145Z,77.70
2022-09-21T13:48:53.188Z,61.20
2022-09-21T13:53:56.676Z,53.10
2022-09-21T13:58:58.794Z,52.10
2022-09-21T14:04:25.948Z,63.00
2022-09-21T14:09:44.438Z,56.50
2022-09-21T14:15:12.770Z,56.50
2022-09-21T14:20:38.556Z,78.10
2022-09-21T14:25:56.835Z,62.30
2022-09-21T14:31:08.386Z,53.90
2022-09-21T14:36:15.361Z,56.50
2022-09-21T14:41:20.339Z,65.00
2022-09-21T14:46:36.155Z,72.70
2022-09-21T14:52:22.466Z,61.20
2022-09-21T14:57:56.309Z,75.40
2022-09-21T15:03:05.053Z,78.40
2022-09-21T15:08:51.730Z,79.60
2022-09-21T15:14:21.338Z,67.60
2022-09-21T15:19:28.250Z,67.30
2022-09-21T15:24:32.983Z,74.30
2022-09-21T15:29:34.901Z,90.00
2022-09-21T15:34:37.648Z,91.40
2022-09-21T15:39:41.337Z,81.60
2022-09-21T15:44:48.764Z,93.30
2022-09-21T15:49:53.145Z,96.40
2022-09-21T15:55:02.922Z,93.50
2022-09-21T16:00:08.165Z,66.50
2022-09-21T16:05:14.497Z,62.20
2022-09-21T16:10:37.513Z,77.70
2022-09-21T16:15:39.495Z,63.70
2022-09-21T16:20:45.712Z,68.10
2022-09-21T16:25:54.918Z,66.20
2022-09-21T16:30:57.537Z,73.70
2022-09-21T16:36:04.047Z,73.80
2022-09-21T16:41:07.606Z,71.90
2022-09-21T16:46:10.367Z,66.20
2022-09-21T16:51:14.170Z,65.60
2022-09-21T16:56:16.463Z,68.30
2022-09-21T17:01:22.206Z,69.10
2022-09-21T17:06:24.148Z,72.40
2022-09-21T17:11:26.021Z,80.80
2022-09-21T17:16:27.982Z,77.40
2022-09-21T17:21:31.305Z,76.70
2022-09-21T17:26:34.107Z,78.60
2022-09-21T17:31:38.608Z,78.80
2022-09-21T17:36:40.637Z,84.00
2022-09-21T17:41:51.442Z,89.50
2022-09-21T17:47:00.167Z,87.10
2022-09-21T17:52:21.085Z,95.00
2022-09-21T17:57:36.199Z,95.00
2022-09-21T18:02:38.205Z,99.90
2022-09-21T18:07:41.854Z,99.90
2022-09-21T18:12:54.097Z,99.90
2022-09-21T18:17:59.333Z,99.90
2022-09-21T18:23:30.978Z,99.90
